Latest Weather Observations for Tindal

IDD60801

Issued at 9:01 pm CST Saturday 27 August 2016 (issued every 30 minutes, with the page automatically refreshed every 10 minutes)

About weather observations | Map of weather stations | Latest weather observations for NT | Other Formats
Station Details ID: 014932 Name: TINDAL RAAF Lat: -14.52 Lon: 132.38 Height: 133.6 m
Data from the previous 72 hours. | See also: Recent months at Tindal
Date/Time
CST
Temp
°C
App
Temp
°C
Dew
Point
°C
Rel
Hum
%
Delta-T
°C
Wind Press
QNH
hPa
Press
MSL
hPa
Rain since
9am
mm
Dir  Spd
km/h
Gust
km/h
Spd
kts
Gust
kts
27/09:00pm 18.8 16.3 4.6 39 6.9 SE 7 9 4 5 1015.6 1015.1 0.0
27/08:30pm 19.5 17.1 4.4 37 7.3 SE 6 9 3 5 1015.5 1015.0 0.0
27/08:00pm 21.2 19.9 4.3 33 8.3 CALM 0 0 0 0 1015.0 1014.4 0.0
27/07:30pm 23.0 20.5 3.5 28 9.5 ESE 6 7 3 4 1014.6 1014.0 0.0
27/07:00pm 25.9 22.6 2.6 22 11.4 SE 9 9 5 5 1014.4 1013.8 0.0
27/06:30pm 28.0 24.2 1.5 18 12.9 SE 11 13 6 7 1014.0 1013.4 0.0
27/06:00pm 29.8 25.4 0.4 15 14.2 SE 13 20 7 11 1013.8 1013.2 0.0
27/05:30pm 30.6 26.2 0.1 14 14.7 SSE 13 20 7 11 1013.7 1013.1 0.0
27/05:00pm 30.7 26.3 0.2 14 14.8 SSE 13 20 7 11 1013.8 1013.2 0.0
27/04:30pm 31.1 26.7 0.5 14 14.9 SE 13 22 7 12 1013.6 1013.0 0.0
27/04:00pm 30.9 26.3 1.3 15 14.6 ESE 15 24 8 13 1013.8 1013.2 0.0
27/03:30pm 30.8 26.1 1.2 15 14.6 ESE 15 22 8 12 1014.0 1013.4 0.0
27/03:00pm 30.4 24.9 0.9 15 14.4 SE 19 30 10 16 1014.2 1013.6 0.0
27/02:30pm 30.8 25.8 1.2 15 14.6 SE 17 30 9 16 1014.7 1014.1 0.0
27/02:00pm 29.9 24.7 2.2 17 13.8 ESE 19 32 10 17 1015.3 1014.7 0.0
27/01:30pm 29.7 25.1 3.6 19 13.3 ESE 17 26 9 14 1016.0 1015.4 0.0
27/01:00pm 28.5 23.5 4.7 22 12.3 ESE 20 35 11 19 1016.8 1016.2 0.0
27/12:30pm 28.5 23.8 6.0 24 11.9 ESE 20 32 11 17 1017.4 1016.8 0.0
27/12:00pm 28.0 23.2 5.6 24 11.7 E 20 32 11 17 1018.0 1017.4 0.0
27/11:30am 26.8 21.9 5.1 25 11.1 E 20 32 11 17 1018.6 1018.0 0.0
27/11:00am 26.6 21.0 5.5 26 10.9 E 24 41 13 22 1019.0 1018.4 0.0
27/10:30am 25.3 19.3 5.5 28 10.1 ESE 26 33 14 18 1019.2 1018.6 0.0
27/10:00am 24.7 18.0 5.5 29 9.8 E 30 39 16 21 1019.0 1018.4 0.0
27/09:30am 23.9 17.3 6.2 32 9.1 E 30 37 16 20 1018.9 1018.3 0.0
27/09:16am 23.1 17.0 6.4 34 8.6 E 28 46 15 25 1018.9 1018.3 0.0
27/09:00am 22.3 18.9 10.5 47 6.5 E 19 28 10 15 1019.0 1018.4 0.0
27/08:30am 20.3 17.3 9.2 49 5.9 SE 15 17 8 9 1019.1 1018.5 0.0
27/08:00am 18.9 16.4 8.0 49 5.6 SE 11 13 6 7 1019.0 1018.4 0.0
27/07:30am 17.4 15.5 7.5 52 5.0 SSE 7 9 4 5 1018.6 1018.0 0.0
27/07:00am 16.7 14.6 6.8 52 4.9 ESE 7 9 4 5 1017.9 1017.3 0.0
27/06:30am 17.8 15.3 6.7 48 5.5 E 9 11 5 6 1017.5 1016.9 0.0
27/06:00am 18.3 15.8 6.5 46 5.9 ESE 9 17 5 9 1017.0 1016.4 0.0
27/05:30am 18.9 16.0 6.4 44 6.3 E 11 15 6 8 1016.6 1016.0 0.0
27/05:00am 18.6 15.2 6.1 44 6.2 ESE 13 17 7 9 1016.0 1015.4 0.0
27/04:30am 18.2 14.7 5.4 43 6.2 SE 13 15 7 8 1015.6 1015.1 0.0
27/04:00am 17.6 14.0 5.2 44 6.0 SE 13 15 7 8 1015.6 1015.1 0.0
27/03:30am 17.7 14.5 5.0 43 6.1 SE 11 13 6 7 1015.8 1015.2 0.0
27/03:00am 17.3 14.5 5.3 45 5.8 SE 9 11 5 6 1015.4 1014.9 0.0
27/02:30am 18.6 15.7 4.4 39 6.8 SE 9 11 5 6 1015.5 1015.0 0.0
27/02:00am 20.0 16.7 4.5 36 7.5 SE 11 13 6 7 1015.5 1015.0 0.0
27/01:30am 20.1 16.8 4.6 36 7.5 SE 11 13 6 7 1015.6 1015.1 0.0
27/01:00am 20.0 16.4 4.9 37 7.4 SE 13 15 7 8 1015.6 1015.1 0.0
27/12:30am 20.3 16.8 5.5 38 7.3 SE 13 17 7 9 1015.8 1015.2 0.0
27/12:00am 18.7 15.7 7.5 48 5.7 SSE 13 22 7 12 1016.0 1015.4 0.0
 
Date/Time
CST
Temp
°C
App
Temp
°C
Dew
Point
°C
Rel
Hum
%
Delta-T
°C
Wind Press
QNH
hPa
Press
MSL
hPa
Rain since
9am
mm
Dir  Spd
km/h
Gust
km/h
Spd
kts
Gust
kts
26/11:30pm 19.2 16.5 7.3 46 6.1 SE 11 13 6 7 1016.1 1015.5 0.0
26/11:00pm 19.6 17.0 7.7 46 6.1 SE 11 13 6 7 1016.0 1015.4 0.0
26/10:30pm 20.1 17.9 7.8 45 6.4 SE 9 11 5 6 1015.8 1015.2 0.0
26/10:00pm 21.0 18.7 7.6 42 7.0 SE 9 9 5 5 1015.6 1015.1 0.0
26/09:30pm 21.5 18.8 7.3 40 7.3 ESE 11 13 6 7 1015.5 1015.0 0.0
26/09:00pm 21.8 19.3 8.0 41 7.2 ESE 11 13 6 7 1015.5 1015.0 0.0
26/08:30pm 22.6 20.3 7.6 38 7.9 ESE 9 11 5 6 1015.2 1014.6 0.0
26/08:00pm 23.7 21.4 7.3 35 8.6 ESE 9 11 5 6 1015.0 1014.4 0.0
26/07:30pm 25.6 23.2 7.2 31 9.7 ESE 9 11 5 6 1014.6 1014.0 0.0
26/07:00pm 28.0 25.0 6.2 25 11.5 ESE 11 15 6 8 1014.1 1013.5 0.0
26/06:30pm 29.4 26.3 5.5 22 12.6 ESE 11 17 6 9 1013.7 1013.1 0.0
26/06:00pm 30.4 26.6 5.6 21 13.1 ESE 15 19 8 10 1013.4 1012.8 0.0
26/05:30pm 30.9 27.1 6.0 21 13.3 SE 15 20 8 11 1013.2 1012.6 0.0
26/05:00pm 31.3 27.1 5.7 20 13.7 SE 17 24 9 13 1012.9 1012.3 0.0
26/04:30pm 31.4 28.0 5.8 20 13.7 SE 13 20 7 11 1012.7 1012.1 0.0
26/04:00pm 31.5 27.3 5.8 20 13.7 ESE 17 26 9 14 1012.7 1012.1 0.0
26/03:30pm 32.1 29.0 5.6 19 14.2 ESE 11 24 6 13 1012.8 1012.2 0.0
26/03:00pm 31.3 27.1 5.7 20 13.7 ESE 17 26 9 14 1013.1 1012.5 0.0
26/02:30pm 31.4 27.2 5.8 20 13.7 E 17 26 9 14 1013.6 1013.0 0.0
26/02:00pm 31.2 26.4 5.6 20 13.6 SE 20 30 11 16 1014.0 1013.4 0.0
26/01:30pm 30.4 24.8 5.6 21 13.1 ESE 24 35 13 19 1014.6 1014.0 0.0
26/01:00pm 29.9 25.2 5.9 22 12.7 ESE 20 32 11 17 1015.3 1014.7 0.0
26/12:30pm 29.2 23.7 6.0 23 12.3 E 24 35 13 19 1015.8 1015.2 0.0
26/12:00pm 29.1 23.7 6.5 24 12.1 E 24 33 13 18 1016.1 1015.5 0.0
26/11:30am 28.8 23.5 6.8 25 11.8 E 24 33 13 18 1016.8 1016.2 0.0
26/11:00am 27.9 22.8 7.7 28 10.9 E 24 35 13 19 1017.1 1016.5 0.0
26/10:30am 27.0 21.9 7.5 29 10.5 E 24 35 13 19 1017.4 1016.8 0.0
26/10:00am 26.6 20.4 6.1 27 10.7 E 28 41 15 22 1017.5 1016.9 0.0
26/09:30am 25.6 18.6 5.8 28 10.2 E 32 46 17 25 1017.6 1017.0 0.0
26/09:25am 25.8 19.5 5.9 28 10.3 E 28 46 15 25 1017.5 1016.9 0.0
26/09:00am 24.8 19.3 7.4 33 9.2 ESE 26 39 14 21 1017.5 1016.9 0.0
26/08:30am 23.3 19.5 11.0 46 6.9 E 22 33 12 18 1017.2 1016.6 0.0
26/08:00am 22.2 19.3 13.0 56 5.3 ESE 20 28 11 15 1017.2 1016.6 0.0
26/07:30am 21.4 19.4 11.4 53 5.6 ESE 13 20 7 11 1017.0 1016.4 0.0
26/07:00am 20.8 18.0 11.4 55 5.2 SE 17 22 9 12 1016.6 1016.0 0.0
26/06:30am 21.4 18.6 11.4 53 5.6 ESE 17 22 9 12 1016.2 1015.6 0.0
26/06:00am 22.0 18.8 9.9 46 6.6 ESE 17 22 9 12 1015.8 1015.2 0.0
26/05:30am 22.3 18.7 4.8 32 8.7 ESE 13 19 7 10 1015.3 1014.7 0.0
26/05:00am 22.6 18.1 4.2 30 9.1 SE 17 20 9 11 1015.2 1014.6 0.0
26/04:30am 22.7 17.6 4.2 30 9.1 SE 20 26 11 14 1014.9 1014.3 0.0
26/04:00am 22.7 18.3 4.7 31 9.0 SE 17 24 9 13 1014.7 1014.1 0.0
26/03:30am 22.6 18.3 5.1 32 8.8 SE 17 20 9 11 1014.5 1013.9 0.0
26/03:00am 22.0 18.6 5.8 35 8.2 SSE 13 17 7 9 1014.1 1013.5 0.0
26/02:30am 22.7 19.0 6.5 35 8.3 SSE 15 20 8 11 1014.1 1013.5 0.0
26/02:00am 23.3 19.0 7.0 35 8.5 SSE 19 24 10 13 1014.2 1013.6 0.0
26/01:30am 24.2 19.9 7.8 35 8.7 SE 20 26 11 14 1014.2 1013.6 0.0
26/01:00am 24.1 20.8 9.7 40 7.9 SE 17 24 9 13 1014.0 1013.4 0.0
26/12:30am 23.7 21.6 11.1 45 7.1 SE 13 19 7 10 1013.7 1013.1 0.0
26/12:00am 23.9 21.6 11.9 47 6.8 SSE 15 17 8 9 1013.5 1012.9 0.0
 
Date/Time
CST
Temp
°C
App
Temp
°C
Dew
Point
°C
Rel
Hum
%
Delta-T
°C
Wind Press
QNH
hPa
Press
MSL
hPa
Rain since
9am
mm
Dir  Spd
km/h
Gust
km/h
Spd
kts
Gust
kts
25/11:30pm 24.3 22.8 11.9 45 7.1 SE 11 17 6 9 1013.2 1012.6 0.0
25/11:00pm 24.7 23.1 11.6 44 7.5 SE 11 15 6 8 1013.1 1012.5 0.0
25/10:30pm 25.6 23.7 11.7 42 8.0 SE 13 15 7 8 1013.0 1012.4 0.0
25/10:00pm 24.6 23.1 11.9 45 7.3 SSE 11 13 6 7 1012.9 1012.3 0.0
25/09:30pm 24.8 23.2 11.7 44 7.5 SSE 11 13 6 7 1012.8 1012.2 0.0
25/09:00pm 25.1 23.3 12.0 44 7.5 SSE 13 13 7 7 1012.2 1011.6 0.0
25/08:30pm 25.7 24.8 12.5 44 7.7 SSE 9 11 5 6 1011.8 1011.2 0.0
25/08:00pm 26.6 25.2 12.3 41 8.3 SSE 11 13 6 7 1011.3 1010.7 0.0
25/07:30pm 27.6 26.4 11.6 37 9.2 SSW 9 13 5 7 1010.9 1010.3 0.0
25/07:00pm 29.7 28.4 11.2 31 10.7 SSW 9 11 5 6 1010.6 1010.0 0.0
25/06:30pm 31.7 30.7 11.0 28 12.1 SSW 7 9 4 5 1010.2 1009.6 0.0
25/06:00pm 33.1 31.2 10.4 25 13.2 S 11 15 6 8 1009.8 1009.2 0.0
25/05:30pm 33.6 31.4 10.9 25 13.3 S 13 17 7 9 1009.6 1009.0 0.0
25/05:00pm 34.0 32.9 11.8 26 13.2 SSW 9 15 5 8 1009.3 1008.7 0.0
25/04:30pm 33.7 30.8 10.9 25 13.4 WSW 17 20 9 11 1009.3 1008.7 0.0
25/04:00pm 34.0 33.2 11.8 26 13.2 ENE 7 13 4 7 1009.3 1008.7 0.0
25/03:30pm 34.4 32.2 12.1 26 13.4 SW 15 24 8 13 1009.5 1008.9 0.0
25/03:00pm 33.6 32.0 11.5 26 13.1 NNW 11 19 6 10 1009.8 1009.2 0.0
25/02:30pm 32.6 30.9 12.3 29 12.1 ESE 13 20 7 11 1010.1 1009.5 0.0
25/02:00pm 32.8 31.6 12.9 29 12.0 ESE 11 24 6 13 1010.6 1010.0 0.0
25/01:30pm 31.7 30.0 12.5 31 11.4 ESE 13 20 7 11 1011.1 1010.5 0.0
25/01:00pm 31.2 29.7 13.0 33 10.9 ESE 13 24 7 13 1011.7 1011.1 0.0
25/12:30pm 30.2 28.3 13.0 34 10.3 ESE 15 24 8 13 1012.2 1011.6 0.0
25/12:00pm 30.1 27.4 13.4 36 10.0 ESE 20 30 11 16 1012.6 1012.0 0.0
25/11:30am 29.4 26.8 13.2 37 9.7 ESE 19 26 10 14 1013.1 1012.5 0.0
25/11:00am 27.9 24.3 11.9 37 9.3 ESE 22 33 12 18 1013.5 1012.9 0.0
25/10:30am 27.6 24.0 12.0 38 9.1 SE 22 30 12 16 1013.8 1013.2 0.0
25/10:00am 26.5 22.9 11.8 40 8.5 ESE 22 33 12 18 1014.0 1013.4 0.0
25/09:30am 26.0 21.9 11.4 40 8.3 ESE 24 32 13 17 1013.9 1013.3 0.0
25/09:00am 25.0 21.3 10.1 39 8.3 ESE 20 32 11 17 1013.8 1013.2 0.0
25/08:30am 22.1 19.9 9.3 44 6.9 ESE 11 17 6 9 1013.5 1012.9 0.0
25/08:00am 20.4 17.6 8.4 46 6.3 SE 13 15 7 8 1013.2 1012.6 0.0
25/07:30am 19.1 17.3 7.8 48 5.8 ESE 7 9 4 5 1012.8 1012.2 0.0
25/07:00am 17.5 15.7 7.8 53 4.9 ESE 7 7 4 4 1012.5 1011.9 0.0
25/06:30am 17.4 15.8 8.0 54 4.8 ESE 6 7 3 4 1012.0 1011.4 0.0
25/06:00am 17.0 15.3 8.2 56 4.5 SSE 7 9 4 5 1011.6 1011.0 0.0
25/05:30am 17.8 15.6 7.8 52 5.1 S 9 9 5 5 1011.5 1010.9 0.0
25/05:00am 17.9 17.3 7.3 50 5.4 CALM 0 0 0 0 1011.1 1010.5 0.0
25/04:30am 18.4 17.0 7.2 48 5.7 ESE 4 6 2 3 1010.9 1010.3 0.0
25/04:00am 19.1 17.2 6.9 45 6.2 E 6 9 3 5 1010.8 1010.2 0.0
25/03:30am 19.8 19.0 6.5 42 6.7 CALM 0 0 0 0 1010.7 1010.1 0.0
25/03:00am 21.2 20.2 5.6 36 7.8 CALM 0 0 0 0 1010.7 1010.1 0.0
25/02:30am 21.7 18.9 5.2 34 8.2 SE 9 13 5 7 1010.7 1010.1 0.0
25/02:00am 22.1 18.1 5.1 33 8.5 SE 15 17 8 9 1010.8 1010.2 0.0
25/01:30am 23.2 19.6 5.2 31 9.1 SE 13 19 7 10 1011.0 1010.4 0.0
25/01:00am 22.3 19.0 6.5 36 8.1 SE 13 13 7 7 1011.3 1010.7 0.0
25/12:30am 23.3 20.9 8.6 39 7.9 SE 11 13 6 7 1011.4 1010.8 0.0
25/12:00am 22.6 20.9 9.7 44 7.0 ESE 9 11 5 6 1011.2 1010.6 0.0
 
Date/Time
CST
Temp
°C
App
Temp
°C
Dew
Point
°C
Rel
Hum
%
Delta-T
°C
Wind Press
QNH
hPa
Press
MSL
hPa
Rain since
9am
mm
Dir  Spd
km/h
Gust
km/h
Spd
kts
Gust
kts
24/11:30pm 22.1 21.1 10.9 49 6.2 SE 7 9 4 5 1011.2 1010.6 0.0
24/11:00pm 22.9 21.7 10.3 45 6.9 SSE 7 9 4 5 1011.1 1010.5 0.0
24/10:30pm 22.8 21.1 11.2 48 6.5 SE 11 11 6 6 1011.0 1010.4 0.0
24/10:00pm 23.2 21.5 11.3 47 6.7 SSE 11 11 6 6 1010.8 1010.2 0.0
24/09:30pm 23.5 21.9 11.5 47 6.8 SSE 11 11 6 6 1010.7 1010.1 0.0

Other Formats:

Comma delimited format used in spreadsheet applications
http://www.bom.gov.au/fwo/IDD60801/IDD60801.94131.axf

JavaScript Object Notation format (JSON) in row-major order
http://www.bom.gov.au/fwo/IDD60801/IDD60801.94131.json